Time;durP1;ratioP1;P1;durP2;ratioP2;P2;SDS_P1;SDS_P2;PMS_P1;PMS_P2;Temp;Humidity;BMP_temperature;BMP_pressure;BME280_temperature;BME280_humidity;BME280_pressure;Samples;Min_cycle;Max_cycle;Signal;HPM_P1;HPM_P2
2023/04/30 00:00:24;;;;;;;;;;;10.30;73.40;;;;;;5074715;28;19922;-28
2023/04/30 00:02:49;;;;;;;;;;;10.30;73.40;;;;;;5074539;28;19944;-28
2023/04/30 00:05:15;;;;;;;;;;;10.30;73.30;;;;;;5074572;28;19912;-27
2023/04/30 00:07:41;;;;;;;;;;;10.30;74.00;;;;;;5074243;28;20372;-25
2023/04/30 00:10:10;;;;;;;;;;;10.30;73.50;;;;;;5072322;28;19939;-28
2023/04/30 00:12:35;;;;;;;;;;;10.30;73.50;;;;;;5074768;28;20364;-25
2023/04/30 00:15:01;;;;;;;;;;;10.20;73.60;;;;;;5074567;28;19923;-28
2023/04/30 00:17:26;;;;;;;;;;;10.20;73.70;;;;;;5074397;28;20269;-31
2023/04/30 00:19:52;;;;;;;;;;;10.20;73.80;;;;;;5074396;28;19919;-26
2023/04/30 00:22:17;;;;;;;;;;;10.20;73.80;;;;;;5074125;28;19913;-27
2023/04/30 00:24:43;;;;;;;;;;;10.20;73.90;;;;;;5074306;28;20014;-25
2023/04/30 00:27:08;;;;;;;;;;;10.10;73.90;;;;;;5074046;28;19916;-27
2023/04/30 00:29:34;;;;;;;;;;;10.20;73.90;;;;;;5072824;28;19912;-25
2023/04/30 00:31:59;;;;;;;;;;;10.20;73.90;;;;;;5074148;28;20077;-26
2023/04/30 00:34:25;;;;;;;;;;;10.10;74.00;;;;;;5073967;28;20117;-28
2023/04/30 00:36:50;;;;;;;;;;;10.10;74.00;;;;;;5073920;28;19916;-26
2023/04/30 00:39:16;;;;;;;;;;;10.10;74.00;;;;;;5074072;28;19920;-27
2023/04/30 00:41:42;;;;;;;;;;;10.10;74.00;;;;;;5072476;28;19923;-28
2023/04/30 00:44:07;;;;;;;;;;;10.10;74.00;;;;;;5073998;28;20004;-27
2023/04/30 00:46:32;;;;;;;;;;;10.10;74.20;;;;;;5074144;28;19966;-26
2023/04/30 00:49:01;;;;;;;;;;;10.00;74.20;;;;;;5073803;28;20009;-27
2023/04/30 00:51:26;;;;;;;;;;;10.00;74.20;;;;;;5073753;28;19990;-27
2023/04/30 00:53:52;;;;;;;;;;;10.00;74.30;;;;;;5073631;28;19916;-26
2023/04/30 00:56:18;;;;;;;;;;;10.00;74.30;;;;;;5073577;28;19974;-26
2023/04/30 00:58:44;;;;;;;;;;;10.00;74.40;;;;;;5073570;28;20010;-27
2023/04/30 01:01:10;;;;;;;;;;;9.90;74.40;;;;;;5072284;28;19913;-25
2023/04/30 01:03:35;;;;;;;;;;;9.90;74.40;;;;;;5073563;28;19919;-28
2023/04/30 01:06:02;;;;;;;;;;;10.00;74.40;;;;;;5073746;28;20014;-25
2023/04/30 01:08:28;;;;;;;;;;;9.90;74.40;;;;;;5073491;28;20070;-26
2023/04/30 01:10:57;;;;;;;;;;;9.90;74.40;;;;;;5073378;28;19913;-25
2023/04/30 01:13:29;;;;;;;;;;;9.90;74.50;;;;;;5073263;28;20303;-26
2023/04/30 01:16:15;;;;;;;;;;;9.90;74.50;;;;;;5073338;28;19970;-26
2023/04/30 01:18:58;;;;;;;;;;;9.90;74.60;;;;;;5072992;28;19919;-27
2023/04/30 01:21:24;;;;;;;;;;;9.80;74.60;;;;;;5071569;28;20371;-26
2023/04/30 01:24:09;;;;;;;;;;;9.90;74.70;;;;;;5072953;28;19927;-28
2023/04/30 01:26:59;;;;;;;;;;;9.80;74.70;;;;;;5071809;28;19912;-27
2023/04/30 01:29:25;;;;;;;;;;;9.80;74.70;;;;;;5072910;28;19919;-26
2023/04/30 01:31:51;;;;;;;;;;;9.80;74.70;;;;;;5073225;28;20384;-27
2023/04/30 01:34:16;;;;;;;;;;;9.80;74.80;;;;;;5072898;28;19948;-29
2023/04/30 01:36:47;;;;;;;;;;;9.80;74.80;;;;;;5073189;28;19912;-27
2023/04/30 01:39:32;;;;;;;;;;;9.80;74.80;;;;;;5072813;28;19918;-26
2023/04/30 01:42:20;;;;;;;;;;;9.70;74.90;;;;;;5072752;28;19919;-27
2023/04/30 01:45:04;;;;;;;;;;;9.70;74.90;;;;;;5072772;28;20301;-30
2023/04/30 01:47:39;;;;;;;;;;;9.70;75.00;;;;;;5072799;28;19943;-28
2023/04/30 01:50:04;;;;;;;;;;;9.60;75.00;;;;;;5072610;28;20045;-26
2023/04/30 01:52:30;;;;;;;;;;;9.60;75.10;;;;;;5072870;28;19981;-27
2023/04/30 01:55:11;;;;;;;;;;;9.60;75.20;;;;;;5072632;28;19912;-30
2023/04/30 01:57:38;;;;;;;;;;;9.60;75.30;;;;;;5072594;28;19912;-32
2023/04/30 02:00:04;;;;;;;;;;;9.60;75.30;;;;;;5072567;28;19935;-27
2023/04/30 02:02:30;;;;;;;;;;;9.50;75.30;;;;;;5072561;28;19920;-25
2023/04/30 02:04:56;;;;;;;;;;;9.50;75.40;;;;;;5072389;28;19912;-29
2023/04/30 02:07:38;;;;;;;;;;;9.50;75.50;;;;;;5072206;28;19917;-29
2023/04/30 02:10:04;;;;;;;;;;;9.50;75.60;;;;;;5072191;28;20018;-26
2023/04/30 02:12:30;;;;;;;;;;;9.50;75.70;;;;;;5072206;28;20012;-27
2023/04/30 02:14:55;;;;;;;;;;;9.40;75.70;;;;;;5072587;28;19960;-27
2023/04/30 02:17:21;;;;;;;;;;;9.40;75.80;;;;;;5072216;28;19916;-33
2023/04/30 02:19:46;;;;;;;;;;;9.30;75.80;;;;;;5072194;28;19959;-26
2023/04/30 02:22:12;;;;;;;;;;;9.30;75.80;;;;;;5072092;28;19912;-26
2023/04/30 02:24:37;;;;;;;;;;;9.40;75.90;;;;;;5071901;28;19924;-28
2023/04/30 02:27:03;;;;;;;;;;;9.30;75.90;;;;;;5071917;28;19934;-26
2023/04/30 02:29:28;;;;;;;;;;;9.30;75.90;;;;;;5071858;28;19995;-27
2023/04/30 02:31:57;;;;;;;;;;;9.30;75.90;;;;;;5071093;28;19920;-26
2023/04/30 02:34:22;;;;;;;;;;;9.30;75.90;;;;;;5070580;28;19912;-26
2023/04/30 02:36:48;;;;;;;;;;;9.30;75.90;;;;;;5070524;28;19912;-29
2023/04/30 02:39:13;;;;;;;;;;;9.30;75.90;;;;;;5071740;28;19912;-26
2023/04/30 02:41:39;;;;;;;;;;;9.30;75.90;;;;;;5071726;28;19952;-28
2023/04/30 02:44:04;;;;;;;;;;;9.30;76.00;;;;;;5071729;28;19920;-26
2023/04/30 02:46:30;;;;;;;;;;;9.20;76.00;;;;;;5071568;28;19920;-28
2023/04/30 02:48:55;;;;;;;;;;;9.20;76.00;;;;;;5071806;28;19913;-26
2023/04/30 02:51:21;;;;;;;;;;;9.20;76.10;;;;;;5071734;28;20403;-27
2023/04/30 02:53:46;;;;;;;;;;;9.20;76.10;;;;;;5072094;28;20272;-26
2023/04/30 02:56:12;;;;;;;;;;;9.20;76.10;;;;;;5071568;28;19912;-28
2023/04/30 02:58:37;;;;;;;;;;;9.20;76.10;;;;;;5071679;28;20003;-41
2023/04/30 03:01:04;;;;;;;;;;;9.20;76.10;;;;;;5071832;28;20361;-27
2023/04/30 03:03:30;;;;;;;;;;;9.20;76.10;;;;;;5070420;28;19913;-26
2023/04/30 03:05:58;;;;;;;;;;;9.20;76.10;;;;;;5071793;28;19920;-26
2023/04/30 03:08:24;;;;;;;;;;;9.20;76.10;;;;;;5071655;28;20489;-28
2023/04/30 03:10:49;;;;;;;;;;;9.20;76.20;;;;;;5071475;28;20007;-32
2023/04/30 03:13:15;;;;;;;;;;;9.20;76.20;;;;;;5071672;28;19978;-29
2023/04/30 03:15:40;;;;;;;;;;;9.10;76.20;;;;;;5071628;28;20344;-26
2023/04/30 03:18:06;;;;;;;;;;;9.20;76.30;;;;;;5071575;28;19912;-26
2023/04/30 03:20:31;;;;;;;;;;;9.10;76.20;;;;;;5071481;28;20273;-27
2023/04/30 03:22:57;;;;;;;;;;;9.10;76.30;;;;;;5070114;28;19920;-36
2023/04/30 03:25:22;;;;;;;;;;;9.10;76.30;;;;;;5071841;28;19966;-28
2023/04/30 03:27:48;;;;;;;;;;;9.10;76.40;;;;;;5071351;28;19926;-26
2023/04/30 03:30:13;;;;;;;;;;;9.00;76.30;;;;;;5071599;28;19920;-26
2023/04/30 03:32:38;;;;;;;;;;;9.00;76.40;;;;;;5071492;28;19916;-29
2023/04/30 03:35:04;;;;;;;;;;;9.00;76.40;;;;;;5071365;28;20305;-27
2023/04/30 03:37:30;;;;;;;;;;;9.00;76.40;;;;;;5071397;28;19913;-28
2023/04/30 03:39:56;;;;;;;;;;;9.00;76.40;;;;;;5071334;28;20015;-27
2023/04/30 03:42:21;;;;;;;;;;;9.00;76.50;;;;;;5070067;28;19912;-28
2023/04/30 03:44:47;;;;;;;;;;;9.00;76.50;;;;;;5075264;28;19919;-25
2023/04/30 03:47:13;;;;;;;;;;;8.90;76.40;;;;;;5074828;28;19916;-26
2023/04/30 03:49:38;;;;;;;;;;;8.90;76.50;;;;;;5074885;28;19916;-29
2023/04/30 03:52:05;;;;;;;;;;;8.90;76.50;;;;;;5073529;28;20069;-28
2023/04/30 03:54:32;;;;;;;;;;;8.90;76.60;;;;;;5074880;28;20011;-25
2023/04/30 03:56:58;;;;;;;;;;;8.90;76.60;;;;;;5074755;28;19913;-28
2023/04/30 03:59:24;;;;;;;;;;;8.90;76.70;;;;;;5074700;28;20261;-25
2023/04/30 04:01:50;;;;;;;;;;;8.90;76.70;;;;;;5074651;28;19936;-29
2023/04/30 04:04:16;;;;;;;;;;;8.90;76.70;;;;;;5074691;28;19912;-26
2023/04/30 04:06:41;;;;;;;;;;;8.90;77.30;;;;;;5074478;28;19913;-27
2023/04/30 04:09:07;;;;;;;;;;;8.90;76.70;;;;;;5074509;28;19958;-28
2023/04/30 04:11:33;;;;;;;;;;;8.90;76.70;;;;;;5074435;28;19977;-27
2023/04/30 04:13:58;;;;;;;;;;;8.80;76.80;;;;;;5074596;28;19919;-25
2023/04/30 04:16:24;;;;;;;;;;;8.90;76.90;;;;;;5074481;28;19963;-25
2023/04/30 04:18:50;;;;;;;;;;;8.90;76.90;;;;;;5074632;28;19966;-31
2023/04/30 04:21:15;;;;;;;;;;;8.80;76.80;;;;;;5074194;28;19913;-26
2023/04/30 04:23:41;;;;;;;;;;;8.80;76.90;;;;;;5074019;28;19920;-29
2023/04/30 04:26:06;;;;;;;;;;;8.80;76.90;;;;;;5074407;28;19912;-26
2023/04/30 04:28:32;;;;;;;;;;;8.80;77.50;;;;;;5074160;28;19920;-29
2023/04/30 04:30:58;;;;;;;;;;;8.90;76.90;;;;;;5073146;28;20254;-32
2023/04/30 04:33:23;;;;;;;;;;;8.80;76.90;;;;;;5074094;28;19920;-27
2023/04/30 04:35:49;;;;;;;;;;;8.80;77.00;;;;;;5074167;28;19913;-28
2023/04/30 04:38:14;;;;;;;;;;;8.90;77.10;;;;;;5074187;28;19913;-26
2023/04/30 04:40:40;;;;;;;;;;;8.90;77.10;;;;;;5072675;28;19936;-26
2023/04/30 04:43:06;;;;;;;;;;;8.90;77.10;;;;;;5074042;28;19966;-32
2023/04/30 04:45:32;;;;;;;;;;;8.90;77.10;;;;;;5073988;28;19919;-31
2023/04/30 04:47:57;;;;;;;;;;;8.80;77.00;;;;;;5073834;28;19940;-26
2023/04/30 04:50:23;;;;;;;;;;;8.90;77.10;;;;;;5073690;28;19912;-29
2023/04/30 04:52:48;;;;;;;;;;;8.90;77.10;;;;;;5073725;28;19913;-27
2023/04/30 04:55:14;;;;;;;;;;;9.00;77.00;;;;;;5072975;28;19955;-27
2023/04/30 04:57:41;;;;;;;;;;;9.00;77.00;;;;;;5073769;28;19920;-27
2023/04/30 05:00:07;;;;;;;;;;;9.00;76.90;;;;;;5073739;28;19916;-26
2023/04/30 05:02:33;;;;;;;;;;;9.00;76.90;;;;;;5073582;28;20264;-29
2023/04/30 05:04:58;;;;;;;;;;;9.10;76.90;;;;;;5073517;28;19916;-27
2023/04/30 05:07:24;;;;;;;;;;;9.10;76.90;;;;;;5073411;28;19916;-25
2023/04/30 05:09:49;;;;;;;;;;;9.10;76.90;;;;;;5073306;28;19909;-39
2023/04/30 05:12:15;;;;;;;;;;;9.10;76.90;;;;;;5073155;28;19909;-25
2023/04/30 05:14:41;;;;;;;;;;;9.10;76.80;;;;;;5071770;28;19909;-26
2023/04/30 05:17:07;;;;;;;;;;;9.10;76.80;;;;;;5073198;28;20011;-25
2023/04/30 05:19:33;;;;;;;;;;;9.10;76.80;;;;;;5073026;28;19952;-30
2023/04/30 05:22:00;;;;;;;;;;;9.20;76.80;;;;;;5073081;28;20348;-33
2023/04/30 05:24:25;;;;;;;;;;;9.20;76.80;;;;;;5072746;28;19920;-24
2023/04/30 05:26:51;;;;;;;;;;;9.20;76.80;;;;;;5072905;28;19991;-28
2023/04/30 05:29:16;;;;;;;;;;;9.20;76.70;;;;;;5073000;28;19909;-25
2023/04/30 05:31:42;;;;;;;;;;;9.30;76.80;;;;;;5072828;28;19909;-26
2023/04/30 05:34:07;;;;;;;;;;;9.30;76.70;;;;;;5072761;28;20414;-25
2023/04/30 05:36:33;;;;;;;;;;;9.30;76.60;;;;;;5072781;28;19915;-28
2023/04/30 05:38:58;;;;;;;;;;;9.30;76.60;;;;;;5072778;28;20380;-28
2023/04/30 05:41:24;;;;;;;;;;;9.40;76.60;;;;;;5071389;28;20029;-31
2023/04/30 05:43:49;;;;;;;;;;;9.40;76.50;;;;;;5072703;28;19930;-26
2023/04/30 05:46:15;;;;;;;;;;;9.40;76.50;;;;;;5072429;28;19948;-34
2023/04/30 05:48:40;;;;;;;;;;;9.40;76.40;;;;;;5072068;28;19935;-35
2023/04/30 05:51:06;;;;;;;;;;;9.50;76.40;;;;;;5072007;28;19941;-47
2023/04/30 05:53:31;;;;;;;;;;;9.50;76.40;;;;;;5070820;28;19908;-28
2023/04/30 05:55:57;;;;;;;;;;;9.60;76.30;;;;;;5072625;28;19976;-34
2023/04/30 05:58:22;;;;;;;;;;;9.60;76.30;;;;;;5072664;28;19909;-28
2023/04/30 06:00:51;;;;;;;;;;;9.70;76.30;;;;;;5072454;28;19908;-32
2023/04/30 06:03:19;;;;;;;;;;;9.70;76.20;;;;;;5072649;28;19909;-28
2023/04/30 06:05:45;;;;;;;;;;;9.80;76.20;;;;;;5072384;28;19948;-33
2023/04/30 06:08:11;;;;;;;;;;;9.80;76.30;;;;;;5072218;28;20360;-32
2023/04/30 06:10:37;;;;;;;;;;;9.90;76.20;;;;;;5072355;28;19938;-26
2023/04/30 06:13:03;;;;;;;;;;;9.90;76.40;;;;;;5072376;28;19962;-30
2023/04/30 06:15:28;;;;;;;;;;;9.90;76.40;;;;;;5072429;28;20541;-33
2023/04/30 06:17:54;;;;;;;;;;;9.90;76.30;;;;;;5072250;28;19995;-28
2023/04/30 06:20:19;;;;;;;;;;;10.00;76.50;;;;;;5072315;28;19908;-30
2023/04/30 06:22:45;;;;;;;;;;;10.00;76.70;;;;;;5072225;28;20261;-27
2023/04/30 06:25:11;;;;;;;;;;;10.00;76.60;;;;;;5072321;28;19920;-28
2023/04/30 06:27:36;;;;;;;;;;;10.10;76.50;;;;;;5072144;28;20422;-27
2023/04/30 06:30:02;;;;;;;;;;;10.10;76.70;;;;;;5072129;28;20392;-27
2023/04/30 06:32:27;;;;;;;;;;;10.10;76.60;;;;;;5072200;28;20368;-28
2023/04/30 06:34:53;;;;;;;;;;;10.20;76.50;;;;;;5070799;28;19915;-29
2023/04/30 06:37:19;;;;;;;;;;;10.20;76.50;;;;;;5071159;28;19958;-27
2023/04/30 06:39:44;;;;;;;;;;;10.30;76.50;;;;;;5072696;28;20275;-27
2023/04/30 06:42:10;;;;;;;;;;;10.30;76.50;;;;;;5072683;28;19934;-33
2023/04/30 06:44:35;;;;;;;;;;;10.40;76.50;;;;;;5072929;28;20279;-27
2023/04/30 06:47:01;;;;;;;;;;;10.40;76.50;;;;;;5072556;28;19923;-27
2023/04/30 06:49:26;;;;;;;;;;;10.40;76.70;;;;;;5072607;28;20383;-28
2023/04/30 06:51:53;;;;;;;;;;;10.50;77.00;;;;;;5072566;28;20398;-27
2023/04/30 06:54:21;;;;;;;;;;;10.50;77.10;;;;;;5072652;28;19908;-28
2023/04/30 06:56:47;;;;;;;;;;;10.60;77.20;;;;;;5072492;28;20007;-37
2023/04/30 06:59:12;;;;;;;;;;;10.60;77.00;;;;;;5072436;28;20386;-28
2023/04/30 07:01:38;;;;;;;;;;;10.70;76.80;;;;;;5071150;28;19909;-28
2023/04/30 07:04:03;;;;;;;;;;;10.80;77.20;;;;;;5072571;28;20356;-28
2023/04/30 07:06:29;;;;;;;;;;;10.90;76.50;;;;;;5072527;28;20380;-28
2023/04/30 07:08:54;;;;;;;;;;;10.90;76.20;;;;;;5072369;28;19919;-30
2023/04/30 07:11:20;;;;;;;;;;;11.00;76.20;;;;;;5072433;28;19912;-30
2023/04/30 07:13:45;;;;;;;;;;;11.10;76.00;;;;;;5071809;28;19909;-28
2023/04/30 07:16:11;;;;;;;;;;;11.10;75.90;;;;;;5072040;28;19997;-30
2023/04/30 07:18:37;;;;;;;;;;;11.20;75.80;;;;;;5072632;28;19908;-27
2023/04/30 07:21:02;;;;;;;;;;;11.30;75.60;;;;;;5075742;28;19909;-28
2023/04/30 07:23:28;;;;;;;;;;;11.40;75.50;;;;;;5075487;28;20011;-27
2023/04/30 07:25:53;;;;;;;;;;;11.50;75.30;;;;;;5075753;28;19908;-29
2023/04/30 07:28:19;;;;;;;;;;;11.60;75.30;;;;;;5075423;28;20316;-29
2023/04/30 07:30:44;;;;;;;;;;;11.70;75.10;;;;;;5075408;28;19908;-28
2023/04/30 07:33:11;;;;;;;;;;;11.80;74.90;;;;;;5075405;28;19920;-32
2023/04/30 07:35:36;;;;;;;;;;;11.80;74.70;;;;;;5075200;28;19963;-38
2023/04/30 07:38:03;;;;;;;;;;;11.80;74.70;;;;;;5074996;28;19955;-29
2023/04/30 07:40:29;;;;;;;;;;;11.80;74.60;;;;;;5075063;28;20012;-28
2023/04/30 07:42:54;;;;;;;;;;;11.80;75.00;;;;;;5074883;28;20368;-26
2023/04/30 07:45:20;;;;;;;;;;;11.80;75.10;;;;;;5074259;28;19908;-26
2023/04/30 07:47:46;;;;;;;;;;;11.80;75.10;;;;;;5074737;28;19919;-29
2023/04/30 07:50:13;;;;;;;;;;;11.80;75.10;;;;;;5074736;28;19962;-34
2023/04/30 07:52:39;;;;;;;;;;;11.90;75.40;;;;;;5074470;28;19940;-26
2023/04/30 07:55:05;;;;;;;;;;;11.90;75.20;;;;;;5074784;28;19908;-34
2023/04/30 07:57:30;;;;;;;;;;;11.90;75.40;;;;;;5074591;28;20400;-27
2023/04/30 07:59:56;;;;;;;;;;;12.00;76.70;;;;;;5074597;28;20277;-27
2023/04/30 08:02:21;;;;;;;;;;;12.10;77.20;;;;;;5074741;28;19908;-28
2023/04/30 08:04:47;;;;;;;;;;;12.10;77.20;;;;;;5074445;28;19970;-27
2023/04/30 08:07:14;;;;;;;;;;;12.20;77.50;;;;;;5074284;28;19924;-26
2023/04/30 08:09:40;;;;;;;;;;;12.20;77.20;;;;;;5074357;28;19908;-27
2023/04/30 08:12:06;;;;;;;;;;;12.30;76.70;;;;;;5072981;28;19915;-33
2023/04/30 08:14:31;;;;;;;;;;;12.30;76.40;;;;;;5074368;28;19916;-27
2023/04/30 08:16:58;;;;;;;;;;;12.30;76.50;;;;;;5074356;28;19935;-28
2023/04/30 08:19:23;;;;;;;;;;;12.30;76.10;;;;;;5074190;28;19913;-29
2023/04/30 08:21:49;;;;;;;;;;;12.40;76.00;;;;;;5072927;28;19961;-28
2023/04/30 08:24:14;;;;;;;;;;;12.40;76.00;;;;;;5073884;28;19946;-29
2023/04/30 08:26:40;;;;;;;;;;;12.50;76.10;;;;;;5073969;28;19909;-26
2023/04/30 08:29:07;;;;;;;;;;;12.60;76.30;;;;;;5073073;28;19908;-27
2023/04/30 08:31:33;;;;;;;;;;;12.70;76.20;;;;;;5073718;28;19915;-30
2023/04/30 08:33:58;;;;;;;;;;;12.70;76.00;;;;;;5073796;28;19908;-27
2023/04/30 08:36:24;;;;;;;;;;;12.80;76.20;;;;;;5073828;28;20311;-26
2023/04/30 08:38:49;;;;;;;;;;;12.90;74.20;;;;;;5073820;28;20339;-27
2023/04/30 08:41:15;;;;;;;;;;;12.80;74.60;;;;;;5073711;28;20011;-31
2023/04/30 08:43:40;;;;;;;;;;;12.80;74.90;;;;;;5073953;28;20361;-29
2023/04/30 08:46:06;;;;;;;;;;;12.90;75.70;;;;;;5074250;28;19916;-26
2023/04/30 08:48:32;;;;;;;;;;;13.00;74.90;;;;;;5073723;28;20368;-30
2023/04/30 08:51:01;;;;;;;;;;;13.10;74.60;;;;;;5073721;28;19909;-27
2023/04/30 08:53:26;;;;;;;;;;;13.10;74.30;;;;;;5073900;28;19913;-26
2023/04/30 08:55:52;;;;;;;;;;;13.20;74.10;;;;;;5073844;28;20327;-35
2023/04/30 08:58:17;;;;;;;;;;;13.30;73.90;;;;;;5073593;28;19908;-27
2023/04/30 09:00:43;;;;;;;;;;;13.30;73.70;;;;;;5073576;28;19995;-31
2023/04/30 09:03:08;;;;;;;;;;;13.50;73.60;;;;;;5072245;28;19974;-27
2023/04/30 09:05:35;;;;;;;;;;;13.60;73.40;;;;;;5073559;28;19940;-28
2023/04/30 09:08:00;;;;;;;;;;;13.60;72.60;;;;;;5072196;28;20403;-32
2023/04/30 09:10:26;;;;;;;;;;;13.60;72.70;;;;;;5073301;28;19995;-26
2023/04/30 09:12:59;;;;;;;;;;;13.60;72.60;;;;;;5073651;28;20210;-25
2023/04/30 09:15:25;;;;;;;;;;;13.70;72.50;;;;;;5073158;28;19940;-26
2023/04/30 09:17:50;;;;;;;;;;;13.80;72.10;;;;;;5073325;28;19955;-28
2023/04/30 09:20:17;;;;;;;;;;;13.90;72.10;;;;;;5073146;28;20325;-27
2023/04/30 09:22:42;;;;;;;;;;;13.90;71.90;;;;;;5071300;28;19996;-28
2023/04/30 09:25:09;;;;;;;;;;;13.90;71.80;;;;;;5071682;28;19997;-26
2023/04/30 09:27:34;;;;;;;;;;;14.00;71.90;;;;;;5072771;28;19912;-28
2023/04/30 09:30:00;;;;;;;;;;;14.10;71.60;;;;;;5072783;28;19908;-29
2023/04/30 09:32:26;;;;;;;;;;;14.20;71.40;;;;;;5072709;28;20030;-27
2023/04/30 09:34:51;;;;;;;;;;;14.20;71.50;;;;;;5072551;28;19913;-27
2023/04/30 09:37:17;;;;;;;;;;;14.10;69.60;;;;;;5072788;28;19916;-27
2023/04/30 09:39:47;;;;;;;;;;;14.10;70.60;;;;;;5071304;28;19915;-27
2023/04/30 09:42:12;;;;;;;;;;;14.10;70.80;;;;;;5072458;28;20376;-27
2023/04/30 09:44:39;;;;;;;;;;;14.20;70.80;;;;;;5072707;28;19908;-27
2023/04/30 09:47:10;;;;;;;;;;;14.30;70.90;;;;;;5071239;28;20402;-27
2023/04/30 09:49:36;;;;;;;;;;;14.40;70.80;;;;;;5071256;28;20339;-27
2023/04/30 09:52:01;;;;;;;;;;;14.50;70.70;;;;;;5072624;28;19991;-27
2023/04/30 09:54:28;;;;;;;;;;;14.60;70.60;;;;;;5072460;28;19916;-30
2023/04/30 09:56:56;;;;;;;;;;;14.70;70.60;;;;;;5072398;28;19916;-29
2023/04/30 09:59:23;;;;;;;;;;;14.70;70.50;;;;;;5072579;28;19916;-29
2023/04/30 10:01:51;;;;;;;;;;;14.80;70.20;;;;;;5072467;28;20280;-27
2023/04/30 10:04:18;;;;;;;;;;;14.80;70.80;;;;;;5072719;28;19908;-28
2023/04/30 10:06:43;;;;;;;;;;;14.80;70.00;;;;;;5072202;28;19977;-28
2023/04/30 10:09:10;;;;;;;;;;;14.90;69.90;;;;;;5070822;28;19908;-28
2023/04/30 10:11:36;;;;;;;;;;;14.80;69.70;;;;;;5072088;28;19908;-28
2023/04/30 10:14:05;;;;;;;;;;;14.90;70.00;;;;;;5072067;28;20376;-27
2023/04/30 10:16:33;;;;;;;;;;;15.00;70.00;;;;;;5071948;28;19928;-28
2023/04/30 10:19:05;;;;;;;;;;;15.10;69.90;;;;;;5072085;28;19913;-26
2023/04/30 10:21:31;;;;;;;;;;;15.10;69.70;;;;;;5072134;28;19938;-30
2023/04/30 10:23:56;;;;;;;;;;;15.20;69.50;;;;;;5072199;28;20281;-27
2023/04/30 10:26:23;;;;;;;;;;;15.30;69.50;;;;;;5072164;28;19963;-30
2023/04/30 10:28:49;;;;;;;;;;;15.30;69.20;;;;;;5072017;28;19948;-34
2023/04/30 10:31:16;;;;;;;;;;;15.30;68.90;;;;;;5072043;28;19958;-30
2023/04/30 10:33:48;;;;;;;;;;;15.40;69.10;;;;;;5072169;28;19908;-28
2023/04/30 10:36:16;;;;;;;;;;;15.40;69.70;;;;;;5071947;28;19952;-29
2023/04/30 10:38:43;;;;;;;;;;;15.50;69.50;;;;;;5071894;28;20410;-27
2023/04/30 10:41:08;;;;;;;;;;;15.60;69.50;;;;;;5071842;28;20314;-26
2023/04/30 10:43:35;;;;;;;;;;;15.70;69.30;;;;;;5071831;28;19908;-28
2023/04/30 10:46:01;;;;;;;;;;;15.80;69.10;;;;;;5071900;28;19909;-27
2023/04/30 10:48:27;;;;;;;;;;;15.80;68.90;;;;;;5071684;28;19912;-28
2023/04/30 10:50:56;;;;;;;;;;;15.90;69.10;;;;;;5071724;28;19915;-27
2023/04/30 10:53:24;;;;;;;;;;;16.00;69.20;;;;;;5071116;28;20380;-28
2023/04/30 10:56:07;;;;;;;;;;;16.00;68.50;;;;;;5071674;28;20321;-28
2023/04/30 10:58:34;;;;;;;;;;;16.00;69.10;;;;;;5070353;28;19966;-34
2023/04/30 11:01:10;;;;;;;;;;;16.10;68.00;;;;;;5071604;28;20372;-28
2023/04/30 11:03:36;;;;;;;;;;;16.20;68.60;;;;;;5071200;28;19908;-30
2023/04/30 11:06:12;;;;;;;;;;;16.20;68.70;;;;;;5071513;28;19931;-27
2023/04/30 11:08:38;;;;;;;;;;;16.20;68.90;;;;;;5071497;28;19981;-27
2023/04/30 11:11:04;;;;;;;;;;;16.30;68.50;;;;;;5071519;28;19909;-28
2023/04/30 11:13:59;;;;;;;;;;;16.40;68.40;;;;;;5071489;28;19969;-28
2023/04/30 11:16:28;;;;;;;;;;;16.50;68.50;;;;;;5070935;28;20050;-31
2023/04/30 11:18:53;;;;;;;;;;;16.60;68.10;;;;;;5071368;28;19908;-28
2023/04/30 11:21:20;;;;;;;;;;;16.60;67.30;;;;;;5069942;28;20354;-27
2023/04/30 11:23:48;;;;;;;;;;;16.70;67.80;;;;;;5071269;28;20449;-31
2023/04/30 11:26:13;;;;;;;;;;;16.80;66.90;;;;;;5070230;28;19908;-28
2023/04/30 11:28:48;;;;;;;;;;;16.80;67.10;;;;;;5071969;28;19919;-28
2023/04/30 11:31:14;;;;;;;;;;;16.90;67.00;;;;;;5071453;28;20227;-31
2023/04/30 11:33:40;;;;;;;;;;;17.00;66.80;;;;;;5071740;28;20285;-30
2023/04/30 11:36:05;;;;;;;;;;;17.00;66.50;;;;;;5071325;28;19908;-32
2023/04/30 11:38:35;;;;;;;;;;;17.10;66.50;;;;;;5071427;28;20011;-26
2023/04/30 11:41:01;;;;;;;;;;;17.20;65.90;;;;;;5071638;28;20342;-27
2023/04/30 11:43:28;;;;;;;;;;;17.20;66.10;;;;;;5071286;28;19909;-28
2023/04/30 11:46:05;;;;;;;;;;;17.30;66.00;;;;;;5071289;28;20003;-32
2023/04/30 11:48:32;;;;;;;;;;;17.40;65.60;;;;;;5071193;28;19923;-39
2023/04/30 11:50:57;;;;;;;;;;;17.50;65.20;;;;;;5071177;28;20351;-28
2023/04/30 11:53:28;;;;;;;;;;;17.50;65.00;;;;;;5071326;28;19948;-35
2023/04/30 11:55:54;;;;;;;;;;;17.60;65.00;;;;;;5071210;28;19917;-29
2023/04/30 11:58:20;;;;;;;;;;;17.60;64.80;;;;;;5070933;28;19909;-27
2023/04/30 12:00:46;;;;;;;;;;;17.80;64.80;;;;;;5070816;28;20012;-28
2023/04/30 12:03:13;;;;;;;;;;;17.80;64.40;;;;;;5071149;28;19948;-29
2023/04/30 12:05:39;;;;;;;;;;;17.90;64.60;;;;;;5074848;28;20278;-29
2023/04/30 12:08:11;;;;;;;;;;;17.90;64.10;;;;;;5074476;28;19913;-28
2023/04/30 12:10:37;;;;;;;;;;;18.00;63.70;;;;;;5074665;28;19915;-28
2023/04/30 12:13:02;;;;;;;;;;;18.10;64.30;;;;;;5074349;28;20287;-31
2023/04/30 12:15:28;;;;;;;;;;;18.20;64.20;;;;;;5072920;28;20008;-29
2023/04/30 12:17:55;;;;;;;;;;;18.30;64.10;;;;;;5074209;28;20252;-33
2023/04/30 12:20:21;;;;;;;;;;;18.30;63.60;;;;;;5074111;28;19978;-28
2023/04/30 12:22:47;;;;;;;;;;;18.40;63.50;;;;;;5074268;28;19959;-27
2023/04/30 12:25:16;;;;;;;;;;;18.50;63.50;;;;;;5074097;28;19912;-29
2023/04/30 12:27:45;;;;;;;;;;;18.60;63.20;;;;;;5073963;28;19919;-29
2023/04/30 12:30:12;;;;;;;;;;;18.60;62.90;;;;;;5074169;28;19924;-28
2023/04/30 12:32:41;;;;;;;;;;;18.70;62.90;;;;;;5074354;28;20395;-28
2023/04/30 12:35:07;;;;;;;;;;;18.80;62.90;;;;;;5072678;28;19908;-29
2023/04/30 12:37:33;;;;;;;;;;;18.90;62.70;;;;;;5074082;28;20364;-29
2023/04/30 12:39:59;;;;;;;;;;;18.90;62.70;;;;;;5073980;28;19909;-29
2023/04/30 12:42:24;;;;;;;;;;;19.00;62.50;;;;;;5073624;28;19920;-29
2023/04/30 12:44:50;;;;;;;;;;;19.10;62.40;;;;;;5073753;28;19912;-27
2023/04/30 12:47:15;;;;;;;;;;;19.20;62.10;;;;;;5073732;28;20410;-28
2023/04/30 12:49:44;;;;;;;;;;;19.20;62.20;;;;;;5073686;28;19939;-28
2023/04/30 12:52:10;;;;;;;;;;;19.30;62.10;;;;;;5073665;28;19909;-27
2023/04/30 12:54:36;;;;;;;;;;;19.40;62.00;;;;;;5073642;28;19908;-29
2023/04/30 12:57:07;;;;;;;;;;;19.50;61.70;;;;;;5073739;28;19916;-31
2023/04/30 12:59:33;;;;;;;;;;;19.60;61.60;;;;;;5073618;28;19909;-27
2023/04/30 13:02:12;;;;;;;;;;;19.60;61.50;;;;;;5072171;28;19908;-27
2023/04/30 13:04:39;;;;;;;;;;;19.70;61.30;;;;;;5073460;28;19962;-28
2023/04/30 13:07:04;;;;;;;;;;;19.80;61.10;;;;;;5073487;28;19920;-29
2023/04/30 13:09:33;;;;;;;;;;;19.90;61.00;;;;;;5073411;28;19909;-30
2023/04/30 13:11:59;;;;;;;;;;;20.00;60.80;;;;;;5073569;28;19908;-28
2023/04/30 13:14:25;;;;;;;;;;;20.10;60.50;;;;;;5073466;28;19913;-31
2023/04/30 13:16:52;;;;;;;;;;;20.20;60.30;;;;;;5071392;28;20007;-29
2023/04/30 13:19:18;;;;;;;;;;;20.20;59.40;;;;;;5073272;28;19931;-34
2023/04/30 13:21:43;;;;;;;;;;;20.20;59.00;;;;;;5073225;28;19916;-39
2023/04/30 13:24:09;;;;;;;;;;;20.20;58.70;;;;;;5073007;28;19924;-27
2023/04/30 13:26:34;;;;;;;;;;;20.30;58.70;;;;;;5073045;28;19915;-30
2023/04/30 13:29:01;;;;;;;;;;;20.40;58.80;;;;;;5073226;28;20273;-26
2023/04/30 13:31:26;;;;;;;;;;;20.50;58.90;;;;;;5072942;28;19946;-31
2023/04/30 13:33:53;;;;;;;;;;;20.70;58.70;;;;;;5072240;28;20211;-28
2023/04/30 13:36:19;;;;;;;;;;;20.70;58.70;;;;;;5072942;28;19908;-32
2023/04/30 13:38:45;;;;;;;;;;;20.80;58.70;;;;;;5071586;28;19982;-31
2023/04/30 13:41:11;;;;;;;;;;;20.90;58.70;;;;;;5072702;28;19913;-34
2023/04/30 13:43:37;;;;;;;;;;;20.90;58.40;;;;;;5072816;28;19916;-31
2023/04/30 13:46:03;;;;;;;;;;;20.90;58.30;;;;;;5072710;28;19908;-27
2023/04/30 13:48:28;;;;;;;;;;;21.00;58.00;;;;;;5072537;28;20410;-26
2023/04/30 13:50:54;;;;;;;;;;;21.00;58.00;;;;;;5072602;28;19908;-28
2023/04/30 13:53:20;;;;;;;;;;;21.10;57.70;;;;;;5072610;28;20345;-28
2023/04/30 13:55:45;;;;;;;;;;;21.20;57.80;;;;;;5072567;28;19974;-28
2023/04/30 13:58:11;;;;;;;;;;;21.20;57.20;;;;;;5072626;28;19919;-28
2023/04/30 14:00:37;;;;;;;;;;;21.20;56.10;;;;;;5072395;28;19908;-31
2023/04/30 14:03:03;;;;;;;;;;;21.30;56.70;;;;;;5072703;28;19987;-30
2023/04/30 14:05:29;;;;;;;;;;;21.40;56.50;;;;;;5072781;28;20355;-30
2023/04/30 14:07:54;;;;;;;;;;;21.50;56.60;;;;;;5072486;28;19938;-26
2023/04/30 14:10:20;;;;;;;;;;;21.60;56.60;;;;;;5072200;28;20348;-27
2023/04/30 14:12:46;;;;;;;;;;;21.60;56.20;;;;;;5072517;28;19931;-28
2023/04/30 14:15:11;;;;;;;;;;;21.70;56.30;;;;;;5072243;28;19927;-29
2023/04/30 14:17:37;;;;;;;;;;;21.90;56.00;;;;;;5072233;28;19913;-29